sensor_id;sensor_type;location;lat;lon;timestamp;temperature;humidity
17483;DHT22;8858;52.308;20.994;2023-02-15T00:01:56;3.40;99.90
17483;DHT22;8858;52.308;20.994;2023-02-15T00:04:25;3.40;99.90
17483;DHT22;8858;52.308;20.994;2023-02-15T00:07:15;3.50;99.90
17483;DHT22;8858;52.308;20.994;2023-02-15T00:09:45;3.50;99.90
17483;DHT22;8858;52.308;20.994;2023-02-15T00:12:16;3.50;99.90
17483;DHT22;8858;52.308;20.994;2023-02-15T00:14:44;3.50;99.90
17483;DHT22;8858;52.308;20.994;2023-02-15T00:17:13;3.50;99.90
17483;DHT22;8858;52.308;20.994;2023-02-15T00:19:41;3.50;99.90
17483;DHT22;8858;52.308;20.994;2023-02-15T00:22:10;3.50;99.90
17483;DHT22;8858;52.308;20.994;2023-02-15T00:24:42;3.50;99.90
17483;DHT22;8858;52.308;20.994;2023-02-15T00:27:10;3.50;99.90
17483;DHT22;8858;52.308;20.994;2023-02-15T00:29:43;3.50;99.90
17483;DHT22;8858;52.308;20.994;2023-02-15T00:32:11;3.50;99.90
17483;DHT22;8858;52.308;20.994;2023-02-15T00:34:40;3.50;99.90
17483;DHT22;8858;52.308;20.994;2023-02-15T00:37:08;3.60;99.90
17483;DHT22;8858;52.308;20.994;2023-02-15T00:39:37;3.60;99.90
17483;DHT22;8858;52.308;20.994;2023-02-15T00:42:07;3.60;99.90
17483;DHT22;8858;52.308;20.994;2023-02-15T00:44:36;3.60;99.90
17483;DHT22;8858;52.308;20.994;2023-02-15T00:47:07;3.60;99.90
17483;DHT22;8858;52.308;20.994;2023-02-15T00:49:37;3.70;99.90
17483;DHT22;8858;52.308;20.994;2023-02-15T00:52:09;3.70;99.90
17483;DHT22;8858;52.308;20.994;2023-02-15T00:54:38;3.80;99.90
17483;DHT22;8858;52.308;20.994;2023-02-15T00:57:07;3.80;99.90
17483;DHT22;8858;52.308;20.994;2023-02-15T00:59:36;3.90;99.90
17483;DHT22;8858;52.308;20.994;2023-02-15T01:02:06;3.90;99.90
17483;DHT22;8858;52.308;20.994;2023-02-15T01:04:35;3.90;99.90
17483;DHT22;8858;52.308;20.994;2023-02-15T01:07:04;4.00;99.90
17483;DHT22;8858;52.308;20.994;2023-02-15T01:09:34;3.90;99.90
17483;DHT22;8858;52.308;20.994;2023-02-15T01:12:02;3.90;99.90
17483;DHT22;8858;52.308;20.994;2023-02-15T01:14:33;3.80;99.90
17483;DHT22;8858;52.308;20.994;2023-02-15T01:17:04;3.80;99.90
17483;DHT22;8858;52.308;20.994;2023-02-15T01:19:36;3.70;99.90
17483;DHT22;8858;52.308;20.994;2023-02-15T01:22:06;3.70;99.90
17483;DHT22;8858;52.308;20.994;2023-02-15T01:24:34;3.60;99.90
17483;DHT22;8858;52.308;20.994;2023-02-15T01:27:04;3.70;99.90
17483;DHT22;8858;52.308;20.994;2023-02-15T01:29:33;3.70;99.90
17483;DHT22;8858;52.308;20.994;2023-02-15T01:32:01;3.80;99.90
17483;DHT22;8858;52.308;20.994;2023-02-15T01:34:30;3.70;99.90
17483;DHT22;8858;52.308;20.994;2023-02-15T01:37:00;3.80;99.90
17483;DHT22;8858;52.308;20.994;2023-02-15T01:39:30;3.80;99.90
17483;DHT22;8858;52.308;20.994;2023-02-15T01:41:58;3.80;99.90
17483;DHT22;8858;52.308;20.994;2023-02-15T01:44:56;3.80;99.90
17483;DHT22;8858;52.308;20.994;2023-02-15T01:47:32;3.80;99.90
17483;DHT22;8858;52.308;20.994;2023-02-15T01:50:06;3.80;99.90
17483;DHT22;8858;52.308;20.994;2023-02-15T01:52:47;4.00;99.90
17483;DHT22;8858;52.308;20.994;2023-02-15T01:55:17;3.90;99.90
17483;DHT22;8858;52.308;20.994;2023-02-15T01:57:49;3.90;99.90
17483;DHT22;8858;52.308;20.994;2023-02-15T02:00:20;3.90;99.90
17483;DHT22;8858;52.308;20.994;2023-02-15T02:02:52;3.90;99.90
17483;DHT22;8858;52.308;20.994;2023-02-15T02:05:24;4.00;99.90
17483;DHT22;8858;52.308;20.994;2023-02-15T02:07:59;4.00;99.90
17483;DHT22;8858;52.308;20.994;2023-02-15T02:10:30;4.00;99.90
17483;DHT22;8858;52.308;20.994;2023-02-15T02:13:04;4.00;99.90
17483;DHT22;8858;52.308;20.994;2023-02-15T02:15:40;4.00;99.90
17483;DHT22;8858;52.308;20.994;2023-02-15T02:18:22;4.10;99.90
17483;DHT22;8858;52.308;20.994;2023-02-15T02:23:58;4.10;99.90
17483;DHT22;8858;52.308;20.994;2023-02-15T02:26:47;4.10;99.90
17483;DHT22;8858;52.308;20.994;2023-02-15T02:32:48;4.20;99.90
17483;DHT22;8858;52.308;20.994;2023-02-15T02:35:23;4.20;99.90
17483;DHT22;8858;52.308;20.994;2023-02-15T02:38:02;4.20;99.90
17483;DHT22;8858;52.308;20.994;2023-02-15T02:40:40;4.20;99.90
17483;DHT22;8858;52.308;20.994;2023-02-15T02:43:15;4.20;99.90
17483;DHT22;8858;52.308;20.994;2023-02-15T02:45:50;4.20;99.90
17483;DHT22;8858;52.308;20.994;2023-02-15T02:48:29;4.20;99.90
17483;DHT22;8858;52.308;20.994;2023-02-15T02:50:59;4.20;99.90
17483;DHT22;8858;52.308;20.994;2023-02-15T02:53:33;4.20;99.90
17483;DHT22;8858;52.308;20.994;2023-02-15T02:56:05;4.20;99.90
17483;DHT22;8858;52.308;20.994;2023-02-15T02:58:38;4.20;99.90
17483;DHT22;8858;52.308;20.994;2023-02-15T03:01:12;4.20;99.90
17483;DHT22;8858;52.308;20.994;2023-02-15T03:03:45;4.20;99.90
17483;DHT22;8858;52.308;20.994;2023-02-15T03:06:18;4.30;99.90
17483;DHT22;8858;52.308;20.994;2023-02-15T03:08:54;4.30;99.90
17483;DHT22;8858;52.308;20.994;2023-02-15T03:11:23;4.30;99.90
17483;DHT22;8858;52.308;20.994;2023-02-15T03:13:55;4.30;99.90
17483;DHT22;8858;52.308;20.994;2023-02-15T03:16:24;4.30;99.90
17483;DHT22;8858;52.308;20.994;2023-02-15T03:18:58;4.30;99.90
17483;DHT22;8858;52.308;20.994;2023-02-15T03:21:34;4.30;99.90
17483;DHT22;8858;52.308;20.994;2023-02-15T03:24:08;4.30;99.90
17483;DHT22;8858;52.308;20.994;2023-02-15T03:26:39;4.30;99.90
17483;DHT22;8858;52.308;20.994;2023-02-15T03:29:11;4.30;99.90
17483;DHT22;8858;52.308;20.994;2023-02-15T03:31:42;4.30;99.90
17483;DHT22;8858;52.308;20.994;2023-02-15T03:34:14;4.40;99.90
17483;DHT22;8858;52.308;20.994;2023-02-15T03:36:51;4.30;99.90
17483;DHT22;8858;52.308;20.994;2023-02-15T03:39:24;4.30;99.90
17483;DHT22;8858;52.308;20.994;2023-02-15T03:41:58;4.30;99.90
17483;DHT22;8858;52.308;20.994;2023-02-15T03:44:29;4.20;99.90
17483;DHT22;8858;52.308;20.994;2023-02-15T03:47:03;4.20;99.90
17483;DHT22;8858;52.308;20.994;2023-02-15T03:49:38;4.30;99.90
17483;DHT22;8858;52.308;20.994;2023-02-15T03:52:13;4.30;99.90
17483;DHT22;8858;52.308;20.994;2023-02-15T03:54:43;4.30;99.90
17483;DHT22;8858;52.308;20.994;2023-02-15T03:57:17;4.30;99.90
17483;DHT22;8858;52.308;20.994;2023-02-15T04:00:12;4.30;99.90
17483;DHT22;8858;52.308;20.994;2023-02-15T04:03:11;4.30;99.90
17483;DHT22;8858;52.308;20.994;2023-02-15T04:05:43;4.30;99.90
17483;DHT22;8858;52.308;20.994;2023-02-15T04:08:13;4.30;99.90
17483;DHT22;8858;52.308;20.994;2023-02-15T04:10:41;4.30;99.90
17483;DHT22;8858;52.308;20.994;2023-02-15T04:13:19;4.40;99.90
17483;DHT22;8858;52.308;20.994;2023-02-15T04:15:47;4.30;99.90
17483;DHT22;8858;52.308;20.994;2023-02-15T04:18:39;4.30;99.90
17483;DHT22;8858;52.308;20.994;2023-02-15T04:21:29;4.30;99.90
17483;DHT22;8858;52.308;20.994;2023-02-15T04:24:19;4.30;99.90
17483;DHT22;8858;52.308;20.994;2023-02-15T04:27:05;4.30;99.90
17483;DHT22;8858;52.308;20.994;2023-02-15T04:29:38;4.30;99.90
17483;DHT22;8858;52.308;20.994;2023-02-15T04:32:06;4.30;99.90
17483;DHT22;8858;52.308;20.994;2023-02-15T04:34:37;4.30;99.90
17483;DHT22;8858;52.308;20.994;2023-02-15T04:37:07;4.20;99.90
17483;DHT22;8858;52.308;20.994;2023-02-15T04:39:36;4.10;99.90
17483;DHT22;8858;52.308;20.994;2023-02-15T04:42:05;4.10;99.90
17483;DHT22;8858;52.308;20.994;2023-02-15T04:44:33;4.10;99.90
17483;DHT22;8858;52.308;20.994;2023-02-15T04:47:04;4.10;99.90
17483;DHT22;8858;52.308;20.994;2023-02-15T04:49:32;4.10;99.90
17483;DHT22;8858;52.308;20.994;2023-02-15T04:52:01;4.00;99.90
17483;DHT22;8858;52.308;20.994;2023-02-15T04:54:34;4.00;99.90
17483;DHT22;8858;52.308;20.994;2023-02-15T04:57:03;4.00;99.90
17483;DHT22;8858;52.308;20.994;2023-02-15T04:59:33;4.00;99.90
17483;DHT22;8858;52.308;20.994;2023-02-15T05:02:02;4.00;99.90
17483;DHT22;8858;52.308;20.994;2023-02-15T05:04:30;4.00;99.90
17483;DHT22;8858;52.308;20.994;2023-02-15T05:07:01;3.90;99.90
17483;DHT22;8858;52.308;20.994;2023-02-15T05:09:29;3.90;99.90
17483;DHT22;8858;52.308;20.994;2023-02-15T05:12:00;3.90;99.90
17483;DHT22;8858;52.308;20.994;2023-02-15T05:14:28;3.90;99.90
17483;DHT22;8858;52.308;20.994;2023-02-15T05:16:56;3.90;99.90
17483;DHT22;8858;52.308;20.994;2023-02-15T05:19:30;3.90;99.90
17483;DHT22;8858;52.308;20.994;2023-02-15T05:21:58;3.90;99.90
17483;DHT22;8858;52.308;20.994;2023-02-15T05:24:29;4.00;99.90
17483;DHT22;8858;52.308;20.994;2023-02-15T05:27:17;3.90;99.90
17483;DHT22;8858;52.308;20.994;2023-02-15T05:30:06;3.90;99.90
17483;DHT22;8858;52.308;20.994;2023-02-15T05:32:40;3.90;99.90
17483;DHT22;8858;52.308;20.994;2023-02-15T05:35:13;3.80;99.90
17483;DHT22;8858;52.308;20.994;2023-02-15T05:37:42;3.80;99.90
17483;DHT22;8858;52.308;20.994;2023-02-15T05:40:11;3.70;99.90
17483;DHT22;8858;52.308;20.994;2023-02-15T05:42:40;3.70;99.90
17483;DHT22;8858;52.308;20.994;2023-02-15T05:45:09;3.70;99.90
17483;DHT22;8858;52.308;20.994;2023-02-15T05:47:37;3.70;99.90
17483;DHT22;8858;52.308;20.994;2023-02-15T05:50:07;3.80;99.90
17483;DHT22;8858;52.308;20.994;2023-02-15T05:52:35;3.80;99.90
17483;DHT22;8858;52.308;20.994;2023-02-15T05:55:04;3.80;99.90
17483;DHT22;8858;52.308;20.994;2023-02-15T05:57:36;3.80;99.90
17483;DHT22;8858;52.308;20.994;2023-02-15T06:00:06;3.80;99.90
17483;DHT22;8858;52.308;20.994;2023-02-15T06:02:38;3.80;99.90
17483;DHT22;8858;52.308;20.994;2023-02-15T06:05:07;3.80;99.90
17483;DHT22;8858;52.308;20.994;2023-02-15T06:07:36;3.80;99.90
17483;DHT22;8858;52.308;20.994;2023-02-15T06:10:06;3.80;99.90
17483;DHT22;8858;52.308;20.994;2023-02-15T06:12:35;3.80;99.90
17483;DHT22;8858;52.308;20.994;2023-02-15T06:15:05;3.80;99.90
17483;DHT22;8858;52.308;20.994;2023-02-15T06:17:34;3.80;99.90
17483;DHT22;8858;52.308;20.994;2023-02-15T06:20:03;3.80;99.90
17483;DHT22;8858;52.308;20.994;2023-02-15T06:22:33;3.90;99.90
17483;DHT22;8858;52.308;20.994;2023-02-15T06:25:01;3.90;99.90
17483;DHT22;8858;52.308;20.994;2023-02-15T06:27:41;3.90;99.90
17483;DHT22;8858;52.308;20.994;2023-02-15T06:30:12;3.90;99.90
17483;DHT22;8858;52.308;20.994;2023-02-15T06:32:41;3.90;99.90
17483;DHT22;8858;52.308;20.994;2023-02-15T06:35:09;3.90;99.90
17483;DHT22;8858;52.308;20.994;2023-02-15T06:37:38;3.90;99.90
17483;DHT22;8858;52.308;20.994;2023-02-15T06:40:09;3.90;99.90
17483;DHT22;8858;52.308;20.994;2023-02-15T06:42:38;3.90;99.90
17483;DHT22;8858;52.308;20.994;2023-02-15T06:45:07;3.90;99.90
17483;DHT22;8858;52.308;20.994;2023-02-15T06:47:37;4.00;99.90
17483;DHT22;8858;52.308;20.994;2023-02-15T06:50:06;4.00;99.90
17483;DHT22;8858;52.308;20.994;2023-02-15T06:52:37;4.00;99.90
17483;DHT22;8858;52.308;20.994;2023-02-15T06:55:06;4.00;99.90
17483;DHT22;8858;52.308;20.994;2023-02-15T06:57:36;3.90;99.90
17483;DHT22;8858;52.308;20.994;2023-02-15T07:00:06;3.90;99.90
17483;DHT22;8858;52.308;20.994;2023-02-15T07:02:39;3.90;99.90
17483;DHT22;8858;52.308;20.994;2023-02-15T07:05:08;3.90;99.90
17483;DHT22;8858;52.308;20.994;2023-02-15T07:07:36;3.80;99.90
17483;DHT22;8858;52.308;20.994;2023-02-15T07:10:06;3.80;99.90
17483;DHT22;8858;52.308;20.994;2023-02-15T07:12:34;3.80;99.90
17483;DHT22;8858;52.308;20.994;2023-02-15T07:15:08;3.90;99.90
17483;DHT22;8858;52.308;20.994;2023-02-15T07:17:36;3.90;99.90
17483;DHT22;8858;52.308;20.994;2023-02-15T07:20:11;3.90;99.90
17483;DHT22;8858;52.308;20.994;2023-02-15T07:22:40;3.90;99.90
17483;DHT22;8858;52.308;20.994;2023-02-15T07:25:11;3.90;99.90
17483;DHT22;8858;52.308;20.994;2023-02-15T07:27:42;3.90;99.90
17483;DHT22;8858;52.308;20.994;2023-02-15T07:30:13;4.00;99.90
17483;DHT22;8858;52.308;20.994;2023-02-15T07:32:42;4.00;99.90
17483;DHT22;8858;52.308;20.994;2023-02-15T07:35:33;4.00;99.90
17483;DHT22;8858;52.308;20.994;2023-02-15T07:38:02;4.00;99.90
17483;DHT22;8858;52.308;20.994;2023-02-15T07:40:31;4.10;99.90
17483;DHT22;8858;52.308;20.994;2023-02-15T07:43:01;4.10;99.90
17483;DHT22;8858;52.308;20.994;2023-02-15T07:45:29;4.10;99.90
17483;DHT22;8858;52.308;20.994;2023-02-15T07:47:58;4.10;99.90
17483;DHT22;8858;52.308;20.994;2023-02-15T07:50:34;4.10;99.90
17483;DHT22;8858;52.308;20.994;2023-02-15T07:53:02;4.10;99.90
17483;DHT22;8858;52.308;20.994;2023-02-15T07:55:31;4.10;99.90
17483;DHT22;8858;52.308;20.994;2023-02-15T07:58:00;4.10;99.90
17483;DHT22;8858;52.308;20.994;2023-02-15T08:00:28;4.10;99.90
17483;DHT22;8858;52.308;20.994;2023-02-15T08:02:57;4.00;99.90
17483;DHT22;8858;52.308;20.994;2023-02-15T08:05:45;4.00;99.90
17483;DHT22;8858;52.308;20.994;2023-02-15T08:08:14;4.00;99.90
17483;DHT22;8858;52.308;20.994;2023-02-15T08:11:01;4.00;99.90
17483;DHT22;8858;52.308;20.994;2023-02-15T08:13:49;4.00;99.90
17483;DHT22;8858;52.308;20.994;2023-02-15T08:16:29;4.00;99.90
17483;DHT22;8858;52.308;20.994;2023-02-15T08:19:02;4.00;99.90
17483;DHT22;8858;52.308;20.994;2023-02-15T08:21:33;4.10;99.90
17483;DHT22;8858;52.308;20.994;2023-02-15T08:24:04;4.10;99.90
17483;DHT22;8858;52.308;20.994;2023-02-15T08:26:32;4.20;99.90
17483;DHT22;8858;52.308;20.994;2023-02-15T08:29:02;4.20;99.90
17483;DHT22;8858;52.308;20.994;2023-02-15T08:31:35;4.20;99.90
17483;DHT22;8858;52.308;20.994;2023-02-15T08:34:04;4.10;99.90
17483;DHT22;8858;52.308;20.994;2023-02-15T08:36:38;4.00;99.90
17483;DHT22;8858;52.308;20.994;2023-02-15T08:39:07;4.10;99.90
17483;DHT22;8858;52.308;20.994;2023-02-15T08:41:37;4.10;99.90
17483;DHT22;8858;52.308;20.994;2023-02-15T08:44:07;4.10;99.90
17483;DHT22;8858;52.308;20.994;2023-02-15T08:46:38;4.10;99.90
17483;DHT22;8858;52.308;20.994;2023-02-15T08:49:13;4.10;99.90
17483;DHT22;8858;52.308;20.994;2023-02-15T08:51:44;4.20;99.90
17483;DHT22;8858;52.308;20.994;2023-02-15T08:54:17;4.30;99.90
17483;DHT22;8858;52.308;20.994;2023-02-15T08:56:45;4.30;99.90
17483;DHT22;8858;52.308;20.994;2023-02-15T08:59:16;4.30;99.90
17483;DHT22;8858;52.308;20.994;2023-02-15T09:01:45;4.20;99.90
17483;DHT22;8858;52.308;20.994;2023-02-15T09:04:13;4.20;99.90
17483;DHT22;8858;52.308;20.994;2023-02-15T09:06:46;4.20;99.90
17483;DHT22;8858;52.308;20.994;2023-02-15T09:09:16;4.20;99.90
17483;DHT22;8858;52.308;20.994;2023-02-15T09:11:46;4.10;99.90
17483;DHT22;8858;52.308;20.994;2023-02-15T09:14:17;4.10;99.90
17483;DHT22;8858;52.308;20.994;2023-02-15T09:16:48;4.10;99.90
17483;DHT22;8858;52.308;20.994;2023-02-15T09:19:19;4.10;99.90
17483;DHT22;8858;52.308;20.994;2023-02-15T09:21:50;4.00;99.90
17483;DHT22;8858;52.308;20.994;2023-02-15T09:24:19;3.90;99.90
17483;DHT22;8858;52.308;20.994;2023-02-15T09:26:48;3.80;99.90
17483;DHT22;8858;52.308;20.994;2023-02-15T09:29:19;3.80;99.90
17483;DHT22;8858;52.308;20.994;2023-02-15T09:31:48;3.70;99.90
17483;DHT22;8858;52.308;20.994;2023-02-15T09:34:19;3.70;99.90
17483;DHT22;8858;52.308;20.994;2023-02-15T09:36:52;3.80;99.90
17483;DHT22;8858;52.308;20.994;2023-02-15T09:39:22;3.70;99.90
17483;DHT22;8858;52.308;20.994;2023-02-15T09:45:26;3.70;99.90
17483;DHT22;8858;52.308;20.994;2023-02-15T09:48:26;3.80;99.90
17483;DHT22;8858;52.308;20.994;2023-02-15T09:51:21;3.80;99.90
17483;DHT22;8858;52.308;20.994;2023-02-15T09:54:03;3.80;99.90
17483;DHT22;8858;52.308;20.994;2023-02-15T09:56:47;3.90;99.90
17483;DHT22;8858;52.308;20.994;2023-02-15T09:59:23;4.00;99.90
17483;DHT22;8858;52.308;20.994;2023-02-15T10:02:08;4.00;99.90
17483;DHT22;8858;52.308;20.994;2023-02-15T10:05:01;4.10;99.90
17483;DHT22;8858;52.308;20.994;2023-02-15T10:07:57;4.10;99.90
17483;DHT22;8858;52.308;20.994;2023-02-15T10:10:38;4.10;99.90
17483;DHT22;8858;52.308;20.994;2023-02-15T10:13:23;4.20;99.90
17483;DHT22;8858;52.308;20.994;2023-02-15T10:16:07;4.20;99.90
17483;DHT22;8858;52.308;20.994;2023-02-15T10:18:45;4.30;99.90
17483;DHT22;8858;52.308;20.994;2023-02-15T10:21:23;4.30;99.90
17483;DHT22;8858;52.308;20.994;2023-02-15T10:26:50;4.40;99.90
17483;DHT22;8858;52.308;20.994;2023-02-15T10:29:28;4.40;99.90
17483;DHT22;8858;52.308;20.994;2023-02-15T10:32:06;4.40;99.90
17483;DHT22;8858;52.308;20.994;2023-02-15T10:34:38;4.40;99.90
17483;DHT22;8858;52.308;20.994;2023-02-15T10:37:41;4.50;99.90
17483;DHT22;8858;52.308;20.994;2023-02-15T10:40:22;4.50;99.90
17483;DHT22;8858;52.308;20.994;2023-02-15T10:43:16;4.50;99.90
17483;DHT22;8858;52.308;20.994;2023-02-15T10:45:54;4.50;99.90
17483;DHT22;8858;52.308;20.994;2023-02-15T10:48:47;4.50;99.90
17483;DHT22;8858;52.308;20.994;2023-02-15T10:51:32;4.50;99.90
17483;DHT22;8858;52.308;20.994;2023-02-15T10:54:10;4.50;99.90
17483;DHT22;8858;52.308;20.994;2023-02-15T10:56:50;4.50;99.90
17483;DHT22;8858;52.308;20.994;2023-02-15T10:59:46;4.60;99.90
17483;DHT22;8858;52.308;20.994;2023-02-15T11:02:24;4.60;99.90
17483;DHT22;8858;52.308;20.994;2023-02-15T11:05:14;4.60;99.90
17483;DHT22;8858;52.308;20.994;2023-02-15T11:07:47;4.60;99.90
17483;DHT22;8858;52.308;20.994;2023-02-15T11:10:27;4.60;99.90
17483;DHT22;8858;52.308;20.994;2023-02-15T11:12:57;4.60;99.90
17483;DHT22;8858;52.308;20.994;2023-02-15T11:15:32;4.60;99.90
17483;DHT22;8858;52.308;20.994;2023-02-15T11:18:08;4.60;99.90
17483;DHT22;8858;52.308;20.994;2023-02-15T11:20:45;4.70;99.90
17483;DHT22;8858;52.308;20.994;2023-02-15T11:23:21;4.70;99.90
17483;DHT22;8858;52.308;20.994;2023-02-15T11:25:56;4.60;99.90
17483;DHT22;8858;52.308;20.994;2023-02-15T11:28:32;4.60;99.90
17483;DHT22;8858;52.308;20.994;2023-02-15T11:31:13;4.60;99.90
17483;DHT22;8858;52.308;20.994;2023-02-15T11:33:47;4.50;99.90
17483;DHT22;8858;52.308;20.994;2023-02-15T11:36:21;4.60;99.90
17483;DHT22;8858;52.308;20.994;2023-02-15T11:38:57;4.60;99.90
17483;DHT22;8858;52.308;20.994;2023-02-15T11:41:31;4.50;99.90
17483;DHT22;8858;52.308;20.994;2023-02-15T11:44:05;4.50;99.90
17483;DHT22;8858;52.308;20.994;2023-02-15T11:46:37;4.50;99.90
17483;DHT22;8858;52.308;20.994;2023-02-15T11:49:14;4.40;99.90
17483;DHT22;8858;52.308;20.994;2023-02-15T11:51:48;4.40;99.90
17483;DHT22;8858;52.308;20.994;2023-02-15T11:54:21;4.40;99.90
17483;DHT22;8858;52.308;20.994;2023-02-15T11:56:50;4.40;99.90
17483;DHT22;8858;52.308;20.994;2023-02-15T11:59:27;4.40;99.90
17483;DHT22;8858;52.308;20.994;2023-02-15T12:01:58;4.40;99.90
17483;DHT22;8858;52.308;20.994;2023-02-15T12:04:32;4.40;99.90
17483;DHT22;8858;52.308;20.994;2023-02-15T12:07:04;4.30;99.90
17483;DHT22;8858;52.308;20.994;2023-02-15T12:09:46;4.40;99.90
17483;DHT22;8858;52.308;20.994;2023-02-15T12:12:26;4.30;99.90
17483;DHT22;8858;52.308;20.994;2023-02-15T12:14:57;4.30;99.90
17483;DHT22;8858;52.308;20.994;2023-02-15T12:17:28;4.30;99.90
17483;DHT22;8858;52.308;20.994;2023-02-15T12:20:00;4.30;99.90
17483;DHT22;8858;52.308;20.994;2023-02-15T12:22:33;4.40;99.90
17483;DHT22;8858;52.308;20.994;2023-02-15T12:25:28;4.40;99.90
17483;DHT22;8858;52.308;20.994;2023-02-15T12:27:57;4.40;99.90
17483;DHT22;8858;52.308;20.994;2023-02-15T12:30:30;4.50;99.90
17483;DHT22;8858;52.308;20.994;2023-02-15T12:33:13;4.50;99.90
17483;DHT22;8858;52.308;20.994;2023-02-15T12:35:44;4.60;99.90
17483;DHT22;8858;52.308;20.994;2023-02-15T12:38:23;4.60;99.90
17483;DHT22;8858;52.308;20.994;2023-02-15T12:41:00;4.50;99.90
17483;DHT22;8858;52.308;20.994;2023-02-15T12:43:32;4.60;99.90
17483;DHT22;8858;52.308;20.994;2023-02-15T12:46:20;4.60;99.90
17483;DHT22;8858;52.308;20.994;2023-02-15T12:49:05;4.50;99.90
17483;DHT22;8858;52.308;20.994;2023-02-15T12:51:43;4.60;99.90
17483;DHT22;8858;52.308;20.994;2023-02-15T12:54:30;4.60;99.90
17483;DHT22;8858;52.308;20.994;2023-02-15T12:56:59;4.60;99.90
17483;DHT22;8858;52.308;20.994;2023-02-15T12:59:48;4.60;99.90
17483;DHT22;8858;52.308;20.994;2023-02-15T13:02:26;4.60;99.90
17483;DHT22;8858;52.308;20.994;2023-02-15T13:05:03;4.60;99.90
17483;DHT22;8858;52.308;20.994;2023-02-15T13:07:32;4.60;99.90
17483;DHT22;8858;52.308;20.994;2023-02-15T13:10:01;4.60;99.90
17483;DHT22;8858;52.308;20.994;2023-02-15T13:12:31;4.70;99.90
17483;DHT22;8858;52.308;20.994;2023-02-15T13:15:01;4.70;99.90
17483;DHT22;8858;52.308;20.994;2023-02-15T13:17:32;4.70;99.90
17483;DHT22;8858;52.308;20.994;2023-02-15T13:20:05;4.70;99.90
17483;DHT22;8858;52.308;20.994;2023-02-15T13:22:41;4.70;99.90
17483;DHT22;8858;52.308;20.994;2023-02-15T13:25:14;4.80;99.90
17483;DHT22;8858;52.308;20.994;2023-02-15T13:27:48;4.70;99.90
17483;DHT22;8858;52.308;20.994;2023-02-15T13:30:27;4.80;99.90
17483;DHT22;8858;52.308;20.994;2023-02-15T13:33:02;4.70;99.90
17483;DHT22;8858;52.308;20.994;2023-02-15T13:35:39;4.80;99.90
17483;DHT22;8858;52.308;20.994;2023-02-15T13:38:17;4.80;99.90
17483;DHT22;8858;52.308;20.994;2023-02-15T13:40:55;4.90;99.90
17483;DHT22;8858;52.308;20.994;2023-02-15T13:43:35;4.80;99.90
17483;DHT22;8858;52.308;20.994;2023-02-15T13:46:23;4.80;99.90
17483;DHT22;8858;52.308;20.994;2023-02-15T13:49:05;4.80;99.90
17483;DHT22;8858;52.308;20.994;2023-02-15T13:51:43;4.80;99.90
17483;DHT22;8858;52.308;20.994;2023-02-15T13:54:29;4.80;99.90
17483;DHT22;8858;52.308;20.994;2023-02-15T13:57:14;4.80;99.90
17483;DHT22;8858;52.308;20.994;2023-02-15T13:59:58;4.80;99.90
17483;DHT22;8858;52.308;20.994;2023-02-15T14:03:00;4.80;99.90
17483;DHT22;8858;52.308;20.994;2023-02-15T14:06:00;4.80;99.90
17483;DHT22;8858;52.308;20.994;2023-02-15T14:08:42;4.80;99.90
17483;DHT22;8858;52.308;20.994;2023-02-15T14:11:22;4.80;99.90
17483;DHT22;8858;52.308;20.994;2023-02-15T14:14:31;4.80;99.90
17483;DHT22;8858;52.308;20.994;2023-02-15T14:17:14;4.80;99.90
17483;DHT22;8858;52.308;20.994;2023-02-15T14:19:53;4.80;99.90
17483;DHT22;8858;52.308;20.994;2023-02-15T14:22:28;4.80;99.90
17483;DHT22;8858;52.308;20.994;2023-02-15T14:25:23;4.80;99.90
17483;DHT22;8858;52.308;20.994;2023-02-15T14:28:01;4.80;99.90
17483;DHT22;8858;52.308;20.994;2023-02-15T14:30:33;4.70;99.90
17483;DHT22;8858;52.308;20.994;2023-02-15T14:33:06;4.80;99.90
17483;DHT22;8858;52.308;20.994;2023-02-15T14:35:36;4.80;99.90
17483;DHT22;8858;52.308;20.994;2023-02-15T14:38:13;4.70;99.90
17483;DHT22;8858;52.308;20.994;2023-02-15T14:40:48;4.80;99.90
17483;DHT22;8858;52.308;20.994;2023-02-15T14:43:37;4.70;99.90
17483;DHT22;8858;52.308;20.994;2023-02-15T14:46:15;4.70;99.90
17483;DHT22;8858;52.308;20.994;2023-02-15T14:48:47;4.70;99.90
17483;DHT22;8858;52.308;20.994;2023-02-15T14:51:53;4.70;99.90
17483;DHT22;8858;52.308;20.994;2023-02-15T14:54:58;4.70;99.90
17483;DHT22;8858;52.308;20.994;2023-02-15T14:57:33;4.70;99.90
17483;DHT22;8858;52.308;20.994;2023-02-15T15:03:12;4.70;99.90
17483;DHT22;8858;52.308;20.994;2023-02-15T15:05:50;4.70;99.90
17483;DHT22;8858;52.308;20.994;2023-02-15T15:08:26;4.70;99.90
17483;DHT22;8858;52.308;20.994;2023-02-15T15:11:37;4.70;99.90
17483;DHT22;8858;52.308;20.994;2023-02-15T15:14:40;4.60;99.90
17483;DHT22;8858;52.308;20.994;2023-02-15T15:17:11;4.60;99.90
17483;DHT22;8858;52.308;20.994;2023-02-15T15:20:05;4.70;99.90
17483;DHT22;8858;52.308;20.994;2023-02-15T15:22:41;4.60;99.90
17483;DHT22;8858;52.308;20.994;2023-02-15T15:25:12;4.60;99.90
17483;DHT22;8858;52.308;20.994;2023-02-15T15:28:07;4.60;99.90
17483;DHT22;8858;52.308;20.994;2023-02-15T15:31:00;4.60;99.90
17483;DHT22;8858;52.308;20.994;2023-02-15T15:33:59;4.60;99.90
17483;DHT22;8858;52.308;20.994;2023-02-15T15:42:50;4.60;99.90
17483;DHT22;8858;52.308;20.994;2023-02-15T15:45:58;4.60;99.90
17483;DHT22;8858;52.308;20.994;2023-02-15T15:48:35;4.60;99.90
17483;DHT22;8858;52.308;20.994;2023-02-15T15:51:11;4.60;99.90
17483;DHT22;8858;52.308;20.994;2023-02-15T15:53:45;4.50;99.90
17483;DHT22;8858;52.308;20.994;2023-02-15T15:56:18;4.60;99.90
17483;DHT22;8858;52.308;20.994;2023-02-15T15:58:53;4.60;99.90
17483;DHT22;8858;52.308;20.994;2023-02-15T16:01:29;4.60;99.90
17483;DHT22;8858;52.308;20.994;2023-02-15T16:03:59;4.50;99.90
17483;DHT22;8858;52.308;20.994;2023-02-15T16:06:33;4.60;99.90
17483;DHT22;8858;52.308;20.994;2023-02-15T16:09:16;4.50;99.90
17483;DHT22;8858;52.308;20.994;2023-02-15T16:11:47;4.50;99.90
17483;DHT22;8858;52.308;20.994;2023-02-15T16:14:19;4.50;99.90
17483;DHT22;8858;52.308;20.994;2023-02-15T16:16:54;4.40;99.90
17483;DHT22;8858;52.308;20.994;2023-02-15T16:19:28;4.40;99.90
17483;DHT22;8858;52.308;20.994;2023-02-15T16:21:59;4.40;99.90
17483;DHT22;8858;52.308;20.994;2023-02-15T16:25:01;4.40;99.90
17483;DHT22;8858;52.308;20.994;2023-02-15T16:27:37;4.40;99.90
17483;DHT22;8858;52.308;20.994;2023-02-15T16:30:19;4.40;99.90
17483;DHT22;8858;52.308;20.994;2023-02-15T16:33:02;4.40;99.90
17483;DHT22;8858;52.308;20.994;2023-02-15T16:35:33;4.40;99.90
17483;DHT22;8858;52.308;20.994;2023-02-15T16:38:02;4.40;99.90
17483;DHT22;8858;52.308;20.994;2023-02-15T16:40:41;4.30;99.90
17483;DHT22;8858;52.308;20.994;2023-02-15T16:43:16;4.30;99.90
17483;DHT22;8858;52.308;20.994;2023-02-15T16:45:45;4.30;99.90
17483;DHT22;8858;52.308;20.994;2023-02-15T16:48:21;4.30;99.90
17483;DHT22;8858;52.308;20.994;2023-02-15T16:50:55;4.40;99.90
17483;DHT22;8858;52.308;20.994;2023-02-15T16:53:27;4.30;99.90
17483;DHT22;8858;52.308;20.994;2023-02-15T16:56:04;4.30;99.90
17483;DHT22;8858;52.308;20.994;2023-02-15T16:58:37;4.30;99.90